createdAt,value
2023-11-29T00:01:06.733Z,98431.30
2023-11-29T00:03:36.210Z,98428.31
2023-11-29T00:06:05.578Z,98431.16
2023-11-29T00:08:34.519Z,98432.29
2023-11-29T00:11:03.502Z,98430.89
2023-11-29T00:13:32.372Z,98429.84
2023-11-29T00:16:01.471Z,98430.70
2023-11-29T00:18:30.410Z,98431.21
2023-11-29T00:21:03.045Z,98438.34
2023-11-29T00:23:32.902Z,98437.25
2023-11-29T00:26:01.924Z,98440.05
2023-11-29T00:28:30.874Z,98445.89
2023-11-29T00:30:59.594Z,98446.70
2023-11-29T00:33:28.459Z,98450.29
2023-11-29T00:35:57.190Z,98451.27
2023-11-29T00:38:26.031Z,98448.20
2023-11-29T00:40:54.753Z,98454.23
2023-11-29T00:43:23.622Z,98450.83
2023-11-29T00:45:52.423Z,98453.75
2023-11-29T00:48:21.206Z,98453.17
2023-11-29T00:50:50.051Z,98456.98
2023-11-29T00:53:20.271Z,98466.23
2023-11-29T00:55:49.435Z,98483.45
2023-11-29T00:58:18.658Z,98490.90
2023-11-29T01:00:47.751Z,98497.61
2023-11-29T01:03:16.643Z,98502.40
2023-11-29T01:05:45.747Z,98508.39
2023-11-29T01:08:14.523Z,98508.39
2023-11-29T01:10:43.531Z,98518.39
2023-11-29T01:16:43.913Z,98525.52
2023-11-29T01:19:12.696Z,98532.39
2023-11-29T01:21:41.648Z,98531.29
2023-11-29T01:24:10.410Z,98529.38
2023-11-29T01:26:40.297Z,98535.93
2023-11-29T01:29:11.746Z,98535.09
2023-11-29T01:31:40.828Z,98538.79
2023-11-29T01:34:09.904Z,98538.86
2023-11-29T01:36:44.476Z,98540.27
2023-11-29T01:39:16.449Z,98548.44
2023-11-29T01:41:45.221Z,98556.48
2023-11-29T01:44:14.080Z,98562.56
2023-11-29T01:46:42.943Z,98569.55
2023-11-29T01:49:11.709Z,98580.63
2023-11-29T01:51:40.669Z,98587.09
2023-11-29T01:54:09.618Z,98592.77
2023-11-29T01:56:38.970Z,98595.02
2023-11-29T01:59:08.192Z,98603.71
2023-11-29T02:01:36.969Z,98605.27
2023-11-29T02:04:06.782Z,98613.70
2023-11-29T02:06:35.470Z,98616.75
2023-11-29T02:09:04.365Z,98623.80
2023-11-29T02:11:35.010Z,98627.84
2023-11-29T02:14:03.807Z,98638.79
2023-11-29T02:16:32.925Z,98636.66
2023-11-29T02:19:02.540Z,98639.83
2023-11-29T02:21:31.498Z,98642.87
2023-11-29T02:24:08.944Z,98649.95
2023-11-29T02:26:37.881Z,98649.76
2023-11-29T02:29:06.589Z,98654.37
2023-11-29T02:31:35.445Z,98658.86
2023-11-29T02:34:05.299Z,98664.05
2023-11-29T02:36:34.143Z,98665.77
2023-11-29T02:39:03.094Z,98667.45
2023-11-29T02:41:32.034Z,98675.83
2023-11-29T02:44:01.370Z,98685.91
2023-11-29T02:46:30.120Z,98698.27
2023-11-29T02:48:59.367Z,98707.23
2023-11-29T02:51:28.970Z,98711.16
2023-11-29T02:53:57.701Z,98715.73
2023-11-29T02:56:26.552Z,98722.77
2023-11-29T02:58:55.553Z,98722.16
2023-11-29T03:01:24.601Z,98726.13
2023-11-29T03:03:53.479Z,98731.27
2023-11-29T03:06:22.330Z,98737.56
2023-11-29T03:08:51.160Z,98746.97
2023-11-29T03:11:20.089Z,98749.58
2023-11-29T03:13:49.141Z,98748.61
2023-11-29T03:16:18.017Z,98748.48
2023-11-29T03:18:46.944Z,98757.00
2023-11-29T03:21:16.817Z,98758.17
2023-11-29T03:23:47.993Z,98766.84
2023-11-29T03:26:16.985Z,98771.70
2023-11-29T03:28:45.745Z,98778.30
2023-11-29T03:31:14.561Z,98777.15
2023-11-29T03:33:43.443Z,98785.15
2023-11-29T03:36:12.367Z,98786.85
2023-11-29T03:38:41.214Z,98792.02
2023-11-29T03:41:10.078Z,98793.39
2023-11-29T03:43:38.996Z,98803.30
2023-11-29T03:46:08.257Z,98812.89
2023-11-29T03:48:37.151Z,98819.60
2023-11-29T03:51:06.413Z,98819.20
2023-11-29T03:53:35.386Z,98819.90
2023-11-29T03:56:04.652Z,98820.78
2023-11-29T03:58:33.571Z,98821.66
2023-11-29T04:01:05.837Z,98832.36
2023-11-29T04:03:35.390Z,98836.98
2023-11-29T04:06:04.436Z,98844.45
2023-11-29T04:08:36.721Z,98853.95
2023-11-29T04:11:06.215Z,98865.61
2023-11-29T04:13:35.205Z,98869.43
2023-11-29T04:16:04.166Z,98872.67
2023-11-29T04:18:33.188Z,98880.09
2023-11-29T04:21:03.081Z,98889.14
2023-11-29T04:23:32.330Z,98898.46
2023-11-29T04:26:01.365Z,98905.83
2023-11-29T04:28:30.777Z,98911.78
2023-11-29T04:30:59.692Z,98915.29
2023-11-29T04:33:28.730Z,98920.84
2023-11-29T04:35:57.781Z,98924.12
2023-11-29T04:38:28.276Z,98928.30
2023-11-29T04:40:57.249Z,98932.73
2023-11-29T04:43:26.551Z,98939.11
2023-11-29T04:45:58.009Z,98948.83
2023-11-29T04:48:28.364Z,98957.24
2023-11-29T04:51:07.537Z,98962.31
2023-11-29T04:53:40.818Z,98972.16
2023-11-29T04:56:10.321Z,98980.79
2023-11-29T04:58:41.448Z,98986.19
2023-11-29T05:01:12.016Z,98992.26
2023-11-29T05:03:41.383Z,98998.56
2023-11-29T05:06:11.556Z,99003.19
2023-11-29T05:08:40.730Z,99001.94
2023-11-29T05:14:22.450Z,99012.05
2023-11-29T05:16:51.393Z,99019.08
2023-11-29T05:19:24.339Z,99020.59
2023-11-29T05:21:53.655Z,99024.20
2023-11-29T05:24:22.694Z,99023.56
2023-11-29T05:26:51.632Z,99026.06
2023-11-29T05:29:20.871Z,99031.08
2023-11-29T05:31:49.937Z,99043.04
2023-11-29T05:34:18.898Z,99053.71
2023-11-29T05:36:47.923Z,99062.48
2023-11-29T05:39:17.051Z,99069.21
2023-11-29T05:41:45.960Z,99072.34
2023-11-29T05:44:14.793Z,99078.65
2023-11-29T05:46:44.867Z,99085.39
2023-11-29T05:49:13.791Z,99093.54
2023-11-29T05:51:42.732Z,99094.13
2023-11-29T05:54:11.511Z,99103.52
2023-11-29T05:56:40.470Z,99109.00
2023-11-29T05:59:09.355Z,99122.05
2023-11-29T06:01:38.699Z,99128.84
2023-11-29T06:04:08.212Z,99135.21
2023-11-29T06:06:37.249Z,99139.83
2023-11-29T06:09:09.460Z,99140.02
2023-11-29T06:11:38.465Z,99144.16
2023-11-29T06:14:07.238Z,99144.04
2023-11-29T06:16:36.846Z,99150.04
2023-11-29T06:19:06.012Z,99148.39
2023-11-29T06:21:35.071Z,99153.06
2023-11-29T06:24:05.582Z,99153.55
2023-11-29T06:26:34.620Z,99157.77
2023-11-29T06:29:05.410Z,99165.27
2023-11-29T06:31:34.324Z,99178.48
2023-11-29T06:34:03.152Z,99182.41
2023-11-29T06:36:36.981Z,99184.70
2023-11-29T06:39:06.258Z,99191.48
2023-11-29T06:41:35.169Z,99197.98
2023-11-29T06:44:07.115Z,99202.42
2023-11-29T06:46:36.586Z,99216.86
2023-11-29T06:49:07.775Z,99231.97
2023-11-29T06:51:37.300Z,99239.41
2023-11-29T06:54:06.723Z,99248.02
2023-11-29T06:56:35.617Z,99263.06
2023-11-29T06:59:05.572Z,99264.66
2023-11-29T07:01:34.686Z,99262.59
2023-11-29T07:04:04.608Z,99272.62
2023-11-29T07:06:33.568Z,99275.94
2023-11-29T07:09:07.157Z,99285.33
2023-11-29T07:11:38.631Z,99290.41
2023-11-29T07:14:07.821Z,99310.15
2023-11-29T07:16:36.705Z,99318.45
2023-11-29T07:19:05.648Z,99322.61
2023-11-29T07:21:34.505Z,99329.73
2023-11-29T07:24:03.477Z,99341.29
2023-11-29T07:26:33.202Z,99347.13
2023-11-29T07:29:02.161Z,99363.62
2023-11-29T07:31:31.594Z,99353.02
2023-11-29T07:34:00.690Z,99362.56
2023-11-29T07:36:31.206Z,99362.48
2023-11-29T07:39:01.710Z,99378.50
2023-11-29T07:41:30.587Z,99382.85
2023-11-29T07:43:59.496Z,99390.21
2023-11-29T07:46:28.466Z,99398.77
2023-11-29T07:48:58.908Z,99410.27
2023-11-29T07:51:28.509Z,99417.53
2023-11-29T07:53:57.570Z,99440.73
2023-11-29T07:56:26.710Z,99445.08
2023-11-29T07:58:55.670Z,99459.75
2023-11-29T08:01:24.565Z,99476.05
2023-11-29T08:03:53.348Z,99484.09
2023-11-29T08:06:22.589Z,99483.45
2023-11-29T08:08:51.529Z,99488.27
2023-11-29T08:11:20.786Z,99487.93
2023-11-29T08:13:51.491Z,99495.87
2023-11-29T08:16:21.030Z,99500.98
2023-11-29T08:18:50.008Z,99495.19
2023-11-29T08:21:18.937Z,99477.77
2023-11-29T08:23:47.924Z,99480.56
2023-11-29T08:26:16.859Z,99496.86
2023-11-29T08:28:45.903Z,99504.95
2023-11-29T08:31:14.827Z,99510.95
2023-11-29T08:33:43.682Z,99525.23
2023-11-29T08:36:13.502Z,99532.91
2023-11-29T08:38:42.565Z,99533.17
2023-11-29T08:41:11.490Z,99527.42
2023-11-29T08:43:40.297Z,99533.08
2023-11-29T08:46:09.360Z,99531.08
2023-11-29T08:48:38.568Z,99537.77
2023-11-29T08:51:08.340Z,99537.45
2023-11-29T08:53:40.778Z,99537.91
2023-11-29T08:56:20.696Z,99548.59
2023-11-29T08:58:50.351Z,99544.69
2023-11-29T09:01:20.783Z,99538.51
2023-11-29T09:03:51.344Z,99532.63
2023-11-29T09:06:20.783Z,99522.10
2023-11-29T09:08:50.071Z,99520.98
2023-11-29T09:11:19.349Z,99513.30
2023-11-29T09:13:50.331Z,99515.40
2023-11-29T09:16:22.545Z,99518.19
2023-11-29T09:18:52.561Z,99511.36
2023-11-29T09:21:23.002Z,99518.27
2023-11-29T09:23:53.203Z,99532.27
2023-11-29T09:26:22.581Z,99528.88
2023-11-29T09:28:51.851Z,99523.27
2023-11-29T09:31:21.426Z,99534.84
2023-11-29T09:33:51.467Z,99542.09
2023-11-29T09:36:20.599Z,99556.42
2023-11-29T09:38:49.648Z,99551.36
2023-11-29T09:41:18.957Z,99552.81
2023-11-29T09:43:48.936Z,99567.59
2023-11-29T09:46:19.242Z,99562.98
2023-11-29T09:48:49.058Z,99578.45
2023-11-29T09:53:52.557Z,99580.89
2023-11-29T09:56:21.552Z,99577.36
2023-11-29T09:58:50.754Z,99574.64
2023-11-29T10:01:20.348Z,99581.98
2023-11-29T10:04:21.784Z,99601.66
2023-11-29T10:06:50.787Z,99606.20
2023-11-29T10:09:20.023Z,99603.69
2023-11-29T10:11:49.764Z,99621.63
2023-11-29T10:14:18.769Z,99627.58
2023-11-29T10:16:54.372Z,99634.05
2023-11-29T10:19:23.291Z,99637.61
2023-11-29T10:21:55.768Z,99648.66
2023-11-29T10:27:57.957Z,99652.55
2023-11-29T10:30:26.941Z,99652.07
2023-11-29T10:32:56.926Z,99660.31
2023-11-29T10:35:26.500Z,99659.50
2023-11-29T10:38:09.075Z,99662.02
2023-11-29T10:40:41.283Z,99665.24
2023-11-29T10:43:14.600Z,99666.60
2023-11-29T10:45:45.972Z,99668.24
2023-11-29T10:48:23.390Z,99680.65
2023-11-29T10:50:52.428Z,99680.97
2023-11-29T10:53:21.877Z,99686.31
2023-11-29T10:55:51.492Z,99681.24
2023-11-29T10:58:29.262Z,99686.05
2023-11-29T11:00:58.108Z,99689.98
2023-11-29T11:03:44.346Z,99697.16
2023-11-29T11:06:25.547Z,99702.05
2023-11-29T11:08:55.753Z,99727.94
2023-11-29T11:11:45.756Z,99726.45
2023-11-29T11:14:31.679Z,99724.63
2023-11-29T11:17:10.970Z,99727.86
2023-11-29T11:19:42.638Z,99732.60
2023-11-29T11:22:35.556Z,99744.52
2023-11-29T11:25:15.003Z,99740.58
2023-11-29T11:27:49.432Z,99747.40
2023-11-29T11:30:18.610Z,99763.27
2023-11-29T11:32:52.500Z,99764.48
2023-11-29T11:35:22.983Z,99766.17
2023-11-29T11:37:57.443Z,99774.55
2023-11-29T11:40:36.389Z,99783.91
2023-11-29T11:43:06.898Z,99785.36
2023-11-29T11:45:38.200Z,99795.43
2023-11-29T11:48:09.610Z,99798.42
2023-11-29T11:50:38.849Z,99807.60
2023-11-29T11:53:08.428Z,99812.36
2023-11-29T11:55:41.545Z,99815.31
2023-11-29T11:58:11.436Z,99822.94
2023-11-29T12:00:40.967Z,99829.65
2023-11-29T12:03:11.402Z,99840.94
2023-11-29T12:05:41.356Z,99841.33
2023-11-29T12:08:10.717Z,99843.10
2023-11-29T12:10:39.936Z,99855.21
2023-11-29T12:13:08.772Z,99859.63
2023-11-29T12:15:39.084Z,99857.34
2023-11-29T12:18:18.302Z,99872.84
2023-11-29T12:20:50.936Z,99875.66
2023-11-29T12:23:29.907Z,99869.61
2023-11-29T12:25:59.012Z,99881.00
2023-11-29T12:28:30.001Z,99881.21
2023-11-29T12:31:00.856Z,99890.70
2023-11-29T12:33:31.883Z,99903.63
2023-11-29T12:36:01.142Z,99911.27
2023-11-29T12:38:30.056Z,99908.51
2023-11-29T12:40:58.974Z,99919.25
2023-11-29T12:43:27.946Z,99927.83
2023-11-29T12:45:58.981Z,99927.17
2023-11-29T12:48:29.719Z,99937.94
2023-11-29T12:50:58.973Z,99941.83
2023-11-29T12:53:28.943Z,99940.91
2023-11-29T12:55:57.870Z,99950.11
2023-11-29T12:58:26.990Z,99954.55
2023-11-29T13:00:56.382Z,99955.04
2023-11-29T13:03:25.183Z,99949.79
2023-11-29T13:05:54.259Z,99951.54
2023-11-29T13:08:23.211Z,99953.85
2023-11-29T13:10:53.698Z,99958.60
2023-11-29T13:13:22.651Z,99963.54
2023-11-29T13:15:51.768Z,99969.86
2023-11-29T13:18:21.061Z,99977.09
2023-11-29T13:20:50.062Z,99982.03
2023-11-29T13:23:19.660Z,99984.67
2023-11-29T13:25:49.153Z,99981.15
2023-11-29T13:31:46.864Z,99991.36
2023-11-29T13:34:15.921Z,99999.66
2023-11-29T13:36:44.896Z,99999.70
2023-11-29T13:39:13.781Z,100002.35
2023-11-29T13:41:42.849Z,100005.14
2023-11-29T13:44:13.806Z,100017.50
2023-11-29T13:46:43.856Z,100021.05
2023-11-29T13:49:39.475Z,100019.66
2023-11-29T13:52:22.453Z,100017.89
2023-11-29T13:54:53.081Z,100020.55
2023-11-29T13:57:22.169Z,100025.33
2023-11-29T13:59:51.006Z,100032.73
2023-11-29T14:02:20.398Z,100037.48
2023-11-29T14:04:49.997Z,100048.45
2023-11-29T14:07:19.460Z,100051.30
2023-11-29T14:09:48.809Z,100060.13
2023-11-29T14:12:20.816Z,100066.48
2023-11-29T14:14:49.721Z,100070.70
2023-11-29T14:17:18.807Z,100074.44
2023-11-29T14:19:47.830Z,100074.95
2023-11-29T14:22:19.542Z,100074.97
2023-11-29T14:24:48.546Z,100077.98
2023-11-29T14:27:17.537Z,100085.40
2023-11-29T14:29:46.603Z,100094.55
2023-11-29T14:32:15.645Z,100106.18
2023-11-29T14:34:46.586Z,100107.95
2023-11-29T14:37:17.343Z,100103.89
2023-11-29T14:39:46.535Z,100112.34
2023-11-29T14:42:15.532Z,100116.58
2023-11-29T14:44:44.449Z,100129.09
2023-11-29T14:47:13.617Z,100129.45
2023-11-29T14:49:42.773Z,100131.57
2023-11-29T14:52:11.795Z,100132.30
2023-11-29T14:54:40.767Z,100138.63
2023-11-29T14:57:09.954Z,100146.38
2023-11-29T14:59:38.879Z,100151.48
2023-11-29T15:02:14.179Z,100146.39
2023-11-29T15:04:43.183Z,100163.29
2023-11-29T15:07:12.150Z,100165.92
2023-11-29T15:10:07.460Z,100172.79
2023-11-29T15:12:36.630Z,100174.55
2023-11-29T15:15:06.492Z,100175.95
2023-11-29T15:17:35.684Z,100178.25
2023-11-29T15:20:07.734Z,100185.99
2023-11-29T15:22:38.441Z,100188.64
2023-11-29T15:25:14.756Z,100192.33
2023-11-29T15:27:49.355Z,100195.52
2023-11-29T15:30:19.146Z,100193.91
2023-11-29T15:32:51.416Z,100196.69
2023-11-29T15:35:21.979Z,100200.04
2023-11-29T15:37:51.376Z,100202.85
2023-11-29T15:40:20.982Z,100209.88
2023-11-29T15:42:59.727Z,100214.09
2023-11-29T15:45:28.882Z,100226.91
2023-11-29T15:47:58.753Z,100230.42
2023-11-29T15:50:28.011Z,100241.31
2023-11-29T15:52:56.976Z,100242.90
2023-11-29T15:55:26.911Z,100250.81
2023-11-29T15:57:55.782Z,100253.64
2023-11-29T16:00:26.270Z,100261.02
2023-11-29T16:03:01.046Z,100267.70
2023-11-29T16:05:30.484Z,100272.47
2023-11-29T16:07:59.446Z,100278.27
2023-11-29T16:10:28.691Z,100278.98
2023-11-29T16:12:58.736Z,100283.38
2023-11-29T16:15:28.420Z,100283.90
2023-11-29T16:17:57.341Z,100281.79
2023-11-29T16:20:26.323Z,100287.60
2023-11-29T16:22:55.200Z,100289.88
2023-11-29T16:25:24.460Z,100288.48
2023-11-29T16:27:53.431Z,100283.54
2023-11-29T16:30:22.272Z,100291.25
2023-11-29T16:32:52.304Z,100302.67
2023-11-29T16:35:21.361Z,100314.61
2023-11-29T16:37:54.366Z,100329.34
2023-11-29T16:40:23.370Z,100338.63
2023-11-29T16:42:52.512Z,100348.96
2023-11-29T16:45:24.185Z,100358.96
2023-11-29T16:47:54.597Z,100365.65
2023-11-29T16:50:23.653Z,100366.18
2023-11-29T16:52:52.746Z,100374.96
2023-11-29T16:55:21.881Z,100377.42
2023-11-29T16:57:50.914Z,100384.98
2023-11-29T17:00:20.624Z,100388.98
2023-11-29T17:02:49.730Z,100400.05
2023-11-29T17:05:19.663Z,100400.02
2023-11-29T17:07:48.690Z,100400.36
2023-11-29T17:10:17.460Z,100407.92
2023-11-29T17:12:46.324Z,100406.50
2023-11-29T17:15:20.086Z,100402.63
2023-11-29T17:17:49.112Z,100403.14
2023-11-29T17:20:18.133Z,100403.66
2023-11-29T17:22:46.937Z,100407.52
2023-11-29T17:25:19.306Z,100414.86
2023-11-29T17:27:48.232Z,100418.20
2023-11-29T17:30:17.630Z,100429.61
2023-11-29T17:32:47.179Z,100429.25
2023-11-29T17:35:16.480Z,100427.84
2023-11-29T17:37:45.554Z,100439.64
2023-11-29T17:40:14.725Z,100443.68
2023-11-29T17:42:44.125Z,100445.45
2023-11-29T17:45:13.378Z,100443.18
2023-11-29T17:47:42.332Z,100447.59
2023-11-29T17:50:11.227Z,100449.88
2023-11-29T17:52:42.020Z,100453.77
2023-11-29T17:55:11.848Z,100456.91
2023-11-29T17:57:42.713Z,100452.34
2023-11-29T18:00:12.757Z,100447.59
2023-11-29T18:02:41.604Z,100451.61
2023-11-29T18:05:10.626Z,100461.44
2023-11-29T18:07:39.441Z,100473.00
2023-11-29T18:10:08.912Z,100479.31
2023-11-29T18:12:37.852Z,100480.17
2023-11-29T18:15:07.802Z,100488.95
2023-11-29T18:17:36.968Z,100490.00
2023-11-29T18:20:07.406Z,100494.93
2023-11-29T18:22:36.259Z,100497.04
2023-11-29T18:25:05.407Z,100502.14
2023-11-29T18:27:34.351Z,100502.67
2023-11-29T18:30:03.497Z,100505.34
2023-11-29T18:32:32.489Z,100504.97
2023-11-29T18:35:01.682Z,100507.23
2023-11-29T21:53:49.082Z,100671.95
2023-11-29T21:56:19.928Z,100671.84
2023-11-29T21:58:48.914Z,100677.70
2023-11-29T22:01:20.887Z,100671.66
2023-11-29T22:03:49.692Z,100673.66
2023-11-29T22:06:18.371Z,100674.30
2023-11-29T22:08:51.427Z,100680.30
2023-11-29T22:11:20.415Z,100677.95
2023-11-29T22:13:49.831Z,100676.30
2023-11-29T22:16:25.350Z,100675.10
2023-11-29T22:18:56.061Z,100680.12
2023-11-29T22:21:27.215Z,100681.98
2023-11-29T22:23:57.074Z,100682.59
2023-11-29T22:26:27.817Z,100683.77
2023-11-29T22:28:56.690Z,100683.48
2023-11-29T22:31:25.636Z,100684.80
2023-11-29T22:33:54.610Z,100685.72
2023-11-29T22:36:23.507Z,100686.08
2023-11-29T22:38:52.366Z,100684.66
2023-11-29T22:41:28.576Z,100690.33
2023-11-29T22:43:58.786Z,100689.02
2023-11-29T22:46:29.221Z,100696.02
2023-11-29T22:48:57.973Z,100694.68
2023-11-29T22:51:26.893Z,100701.92
2023-11-29T22:53:58.208Z,100703.39
2023-11-29T22:56:26.752Z,100706.51
2023-11-29T22:58:55.488Z,100707.09
2023-11-29T23:01:28.534Z,100707.48
2023-11-29T23:03:57.789Z,100702.93
2023-11-29T23:06:27.734Z,100706.39
2023-11-29T23:08:57.296Z,100708.20
2023-11-29T23:11:26.485Z,100711.34
2023-11-29T23:13:55.968Z,100713.83
2023-11-29T23:16:25.146Z,100714.55
2023-11-29T23:18:54.099Z,100726.32
2023-11-29T23:21:23.216Z,100730.50
2023-11-29T23:23:52.161Z,100730.54
2023-11-29T23:26:21.181Z,100726.06
2023-11-29T23:28:50.158Z,100731.05
2023-11-29T23:31:19.164Z,100733.66
2023-11-29T23:33:48.156Z,100734.05
2023-11-29T23:36:17.114Z,100736.23
2023-11-29T23:38:46.225Z,100731.16
2023-11-29T23:41:18.198Z,100732.48
2023-11-29T23:43:47.162Z,100740.95
2023-11-29T23:46:16.179Z,100736.70
2023-11-29T23:48:45.284Z,100735.29
2023-11-29T23:51:14.226Z,100737.20
2023-11-29T23:53:45.097Z,100735.85
2023-11-29T23:56:15.395Z,100735.69
2023-11-29T23:58:44.370Z,100733.08
